createdAt,value
2022-10-05T00:00:40.468Z,944.21
2022-10-05T00:01:41.453Z,944.21
2022-10-05T00:02:42.445Z,944.24
2022-10-05T00:03:43.081Z,944.23
2022-10-05T00:04:43.205Z,944.18
2022-10-05T00:05:43.986Z,944.17
2022-10-05T00:06:44.613Z,944.19
2022-10-05T00:07:44.693Z,944.19
2022-10-05T00:08:45.574Z,944.2
2022-10-05T00:09:45.799Z,944.2
2022-10-05T00:10:46.438Z,944.2
2022-10-05T00:11:46.639Z,944.18
2022-10-05T00:12:47.557Z,944.17
2022-10-05T00:13:48.467Z,944.15
2022-10-05T00:14:49.391Z,944.14
2022-10-05T00:15:50.098Z,944.18
2022-10-05T00:16:51.385Z,944.19
2022-10-05T00:17:51.815Z,944.18
2022-10-05T00:18:52.746Z,944.18
2022-10-05T00:19:53.656Z,944.21
2022-10-05T00:20:54.597Z,944.19
2022-10-05T00:21:55.508Z,944.2
2022-10-05T00:22:55.845Z,944.18
2022-10-05T00:23:56.489Z,944.17
2022-10-05T00:24:57.401Z,944.18
2022-10-05T00:25:57.889Z,944.18
2022-10-05T00:26:58.788Z,944.15
2022-10-05T00:27:59.424Z,944.18
2022-10-05T00:28:59.956Z,944.11
2022-10-05T00:30:00.594Z,944.14
2022-10-05T00:31:01.489Z,944.13
2022-10-05T00:32:02.180Z,944.09
2022-10-05T00:33:02.551Z,944.09
2022-10-05T00:34:02.884Z,944.06
2022-10-05T00:35:03.518Z,944.04
2022-10-05T00:36:04.201Z,944.04
2022-10-05T00:37:04.400Z,944.03
2022-10-05T00:38:05.357Z,944.08
2022-10-05T00:39:06.236Z,944.09
2022-10-05T00:40:07.130Z,944.08
2022-10-05T00:41:07.619Z,944.09
2022-10-05T00:42:08.283Z,944.06
2022-10-05T00:43:08.903Z,944.04
2022-10-05T00:44:09.846Z,944.02
2022-10-05T00:45:10.468Z,943.97
2022-10-05T00:46:10.815Z,943.98
2022-10-05T00:47:10.996Z,943.97
2022-10-05T00:48:11.217Z,943.96
2022-10-05T00:49:11.845Z,943.88
2022-10-05T00:50:12.759Z,943.92
2022-10-05T00:51:13.358Z,943.9
2022-10-05T00:52:13.847Z,943.9
2022-10-05T00:53:14.206Z,943.87
2022-10-05T00:54:18.116Z,943.83
2022-10-05T00:55:15.238Z,943.8
2022-10-05T00:56:15.942Z,943.81
2022-10-05T00:57:16.856Z,943.76
2022-10-05T00:58:17.485Z,943.75
2022-10-05T00:59:18.399Z,943.74
2022-10-05T01:00:19.335Z,943.75
2022-10-05T01:01:19.958Z,943.71
2022-10-05T01:02:21.052Z,943.66
2022-10-05T01:03:21.697Z,943.63
2022-10-05T01:04:21.888Z,943.67
2022-10-05T01:05:22.802Z,943.6
2022-10-05T01:06:23.496Z,943.57
2022-10-05T01:07:24.127Z,943.59
2022-10-05T01:08:25.071Z,943.54
2022-10-05T01:09:25.972Z,943.5
2022-10-05T01:10:26.581Z,943.56
2022-10-05T01:11:26.775Z,943.56
2022-10-05T01:12:27.006Z,943.58
2022-10-05T01:13:27.905Z,943.6
2022-10-05T01:14:28.221Z,943.49
2022-10-05T01:15:28.415Z,943.49
2022-10-05T01:16:29.299Z,943.55
2022-10-05T01:17:30.218Z,943.53
2022-10-05T01:18:30.465Z,943.55
2022-10-05T01:19:31.080Z,943.54
2022-10-05T01:20:31.287Z,943.59
2022-10-05T01:21:31.920Z,943.6
2022-10-05T01:22:32.821Z,943.59
2022-10-05T01:23:33.458Z,943.56
2022-10-05T01:24:34.057Z,943.6
2022-10-05T01:25:34.953Z,943.58
2022-10-05T01:26:35.994Z,943.58
2022-10-05T01:27:36.500Z,943.62
2022-10-05T01:28:36.766Z,943.62
2022-10-05T01:29:36.960Z,943.58
2022-10-05T01:30:37.447Z,943.6
2022-10-05T01:31:37.708Z,943.57
2022-10-05T01:32:38.252Z,943.58
2022-10-05T01:33:39.171Z,943.58
2022-10-05T01:34:40.083Z,943.6
2022-10-05T01:35:40.277Z,943.55
2022-10-05T01:36:40.961Z,943.56
2022-10-05T01:37:41.758Z,943.53
2022-10-05T01:38:41.991Z,943.56
2022-10-05T01:39:42.589Z,943.51
2022-10-05T01:40:43.503Z,943.51
2022-10-05T01:41:43.710Z,943.52
2022-10-05T01:42:43.938Z,943.49
2022-10-05T01:43:44.263Z,943.49
2022-10-05T01:44:45.178Z,943.46
2022-10-05T01:45:45.569Z,943.47
2022-10-05T01:46:46.277Z,943.47
2022-10-05T01:47:46.667Z,943.45
2022-10-05T01:48:47.019Z,943.47
2022-10-05T01:49:47.353Z,943.43
2022-10-05T01:50:47.971Z,943.41
2022-10-05T01:51:48.882Z,943.38
2022-10-05T01:52:49.524Z,943.42
2022-10-05T01:53:50.182Z,943.39
2022-10-05T01:54:51.093Z,943.46
2022-10-05T01:55:51.308Z,943.42
2022-10-05T01:56:52.379Z,943.38
2022-10-05T01:57:53.297Z,943.39
2022-10-05T01:58:54.189Z,943.38
2022-10-05T01:59:54.806Z,943.39
2022-10-05T02:00:55.771Z,943.36
2022-10-05T02:01:56.801Z,943.36
2022-10-05T02:02:57.012Z,943.36
2022-10-05T02:03:57.242Z,943.34
2022-10-05T02:05:01.768Z,943.33
2022-10-05T02:05:58.596Z,943.37
2022-10-05T02:06:59.511Z,943.39
2022-10-05T02:08:00.419Z,943.35
2022-10-05T02:09:01.332Z,943.36
2022-10-05T02:10:01.503Z,943.35
2022-10-05T02:11:02.415Z,943.34
2022-10-05T02:12:03.034Z,943.33
2022-10-05T02:13:03.244Z,943.35
2022-10-05T02:14:03.557Z,943.34
2022-10-05T02:15:03.880Z,943.31
2022-10-05T02:16:04.830Z,943.32
2022-10-05T02:17:04.936Z,943.33
2022-10-05T02:18:05.841Z,943.3
2022-10-05T02:19:06.355Z,943.27
2022-10-05T02:20:06.841Z,943.28
2022-10-05T02:21:07.031Z,943.25
2022-10-05T02:22:07.967Z,943.22
2022-10-05T02:23:08.603Z,943.23
2022-10-05T02:24:09.233Z,943.18
2022-10-05T02:25:09.846Z,943.14
2022-10-05T02:26:10.760Z,943.18
2022-10-05T02:27:11.465Z,943.2
2022-10-05T02:28:12.407Z,943.2
2022-10-05T02:29:13.010Z,943.17
2022-10-05T02:30:16.461Z,943.17
2022-10-05T02:31:14.647Z,943.17
2022-10-05T02:32:14.839Z,943.16
2022-10-05T02:33:15.049Z,943.19
2022-10-05T02:34:15.271Z,943.11
2022-10-05T02:35:16.170Z,943.15
2022-10-05T02:36:17.102Z,943.16
2022-10-05T02:37:17.358Z,943.19
2022-10-05T02:38:17.952Z,943.16
2022-10-05T02:39:19.021Z,943.15
2022-10-05T02:40:19.924Z,943.16
2022-10-05T02:41:20.554Z,943.18
2022-10-05T02:42:20.745Z,943.12
2022-10-05T02:43:21.023Z,943.14
2022-10-05T02:44:21.664Z,943.17
2022-10-05T02:45:22.582Z,943.15
2022-10-05T02:46:23.623Z,943.15
2022-10-05T02:47:23.972Z,943.13
2022-10-05T02:48:24.579Z,943.13
2022-10-05T02:49:25.088Z,943.14
2022-10-05T02:50:25.998Z,943.13
2022-10-05T02:51:26.318Z,943.11
2022-10-05T02:52:26.528Z,943.11
2022-10-05T02:53:27.439Z,943.09
2022-10-05T02:54:28.394Z,943.06
2022-10-05T02:55:28.609Z,943.09
2022-10-05T02:56:29.232Z,943.04
2022-10-05T02:57:29.884Z,943.09
2022-10-05T02:58:30.093Z,943.1
2022-10-05T02:59:31.095Z,943.1
2022-10-05T03:00:31.578Z,943.11
2022-10-05T03:01:32.324Z,943.12
2022-10-05T03:02:32.653Z,943.08
2022-10-05T03:03:33.589Z,943.11
2022-10-05T03:04:34.245Z,943.12
2022-10-05T03:05:35.162Z,943.09
2022-10-05T03:06:36.064Z,943.08
2022-10-05T03:07:36.448Z,943.04
2022-10-05T03:08:36.651Z,943.02
2022-10-05T03:09:37.312Z,942.97
2022-10-05T03:10:37.409Z,942.95
2022-10-05T03:11:38.320Z,942.95
2022-10-05T03:12:38.816Z,942.95
2022-10-05T03:13:39.741Z,942.94
2022-10-05T03:14:39.932Z,942.93
2022-10-05T03:15:40.323Z,942.98
2022-10-05T03:16:40.522Z,943.01
2022-10-05T03:17:41.142Z,942.97
2022-10-05T03:18:41.336Z,943
2022-10-05T03:19:41.590Z,943.01
2022-10-05T03:20:41.779Z,943.05
2022-10-05T03:21:42.393Z,943.02
2022-10-05T03:22:43.029Z,943
2022-10-05T03:23:43.951Z,943.05
2022-10-05T03:24:44.311Z,943.02
2022-10-05T03:25:45.215Z,942.98
2022-10-05T03:26:45.705Z,943.02
2022-10-05T03:27:46.267Z,942.99
2022-10-05T03:28:46.530Z,943.03
2022-10-05T03:29:47.162Z,943.06
2022-10-05T03:30:48.131Z,943.07
2022-10-05T03:31:48.738Z,943.06
2022-10-05T03:32:49.637Z,943.09
2022-10-05T03:33:50.131Z,943.06
2022-10-05T03:34:50.889Z,943.08
2022-10-05T03:35:51.524Z,943.04
2022-10-05T03:36:52.012Z,943.06
2022-10-05T03:37:52.296Z,943.07
2022-10-05T03:38:52.481Z,943.07
2022-10-05T03:39:53.418Z,943.06
2022-10-05T03:40:53.613Z,943.06
2022-10-05T03:41:53.802Z,943.07
2022-10-05T03:42:54.417Z,943.05
2022-10-05T03:43:54.646Z,943.09
2022-10-05T03:44:55.561Z,943.1
2022-10-05T03:45:56.528Z,943.12
2022-10-05T03:46:57.001Z,943.1
2022-10-05T03:48:01.413Z,943.11
2022-10-05T03:48:58.805Z,943.13
2022-10-05T03:49:59.343Z,943.12
2022-10-05T03:50:59.655Z,943.14
2022-10-05T03:52:00.243Z,943.13
2022-10-05T03:53:00.586Z,943.12
2022-10-05T03:54:00.780Z,943.13
2022-10-05T03:55:01.411Z,943.12
2022-10-05T03:56:03.396Z,943.14
2022-10-05T03:57:03.361Z,943.11
2022-10-05T03:58:03.771Z,943.14
2022-10-05T03:59:04.687Z,943.12
2022-10-05T04:00:04.986Z,943.1
2022-10-05T04:01:05.994Z,943.09
2022-10-05T04:02:06.491Z,943.11
2022-10-05T04:03:07.077Z,943.15
2022-10-05T04:04:07.289Z,943.1
2022-10-05T04:05:07.553Z,943.14
2022-10-05T04:06:08.464Z,943.17
2022-10-05T04:07:09.077Z,943.18
2022-10-05T04:08:09.665Z,943.16
2022-10-05T04:09:10.592Z,943.12
2022-10-05T04:10:10.835Z,943.17
2022-10-05T04:11:11.438Z,943.21
2022-10-05T04:12:11.647Z,943.19
2022-10-05T04:13:12.551Z,943.2
2022-10-05T04:14:13.050Z,943.19
2022-10-05T04:15:17.957Z,943.23
2022-10-05T04:16:14.566Z,943.2
2022-10-05T04:17:15.217Z,943.21
2022-10-05T04:18:15.926Z,943.19
2022-10-05T04:19:16.258Z,943.15
2022-10-05T04:20:17.186Z,943.17
2022-10-05T04:21:22.767Z,943.15
2022-10-05T04:22:18.705Z,943.17
2022-10-05T04:23:19.608Z,943.17
2022-10-05T04:24:20.221Z,943.16
2022-10-05T04:25:21.156Z,943.11
2022-10-05T04:26:21.335Z,943.13
2022-10-05T04:27:22.250Z,943.14
2022-10-05T04:28:22.876Z,943.15
2022-10-05T04:29:23.097Z,943.11
2022-10-05T04:30:24.014Z,943.12
2022-10-05T04:31:24.651Z,943.09
2022-10-05T04:32:25.334Z,943.06
2022-10-05T04:33:25.944Z,943.11
2022-10-05T04:34:26.460Z,943.09
2022-10-05T04:35:27.368Z,943.11
2022-10-05T04:36:27.987Z,943.07
2022-10-05T04:37:28.970Z,943.06
2022-10-05T04:38:29.711Z,943.04
2022-10-05T04:39:30.343Z,943.07
2022-10-05T04:40:31.069Z,943.09
2022-10-05T04:41:31.961Z,943.08
2022-10-05T04:42:32.872Z,943.05
2022-10-05T04:43:33.488Z,943.08
2022-10-05T04:44:34.480Z,943.06
2022-10-05T04:45:34.666Z,943.04
2022-10-05T04:46:35.651Z,943.05
2022-10-05T04:47:36.088Z,943.04
2022-10-05T04:48:36.799Z,943.01
2022-10-05T04:49:37.143Z,943.06
2022-10-05T04:50:38.072Z,943.06
2022-10-05T04:51:38.962Z,943.03
2022-10-05T04:52:39.480Z,943.04
2022-10-05T04:53:40.371Z,943.05
2022-10-05T04:54:40.965Z,943.06
2022-10-05T04:55:41.179Z,943.05
2022-10-05T04:56:42.079Z,943.11
2022-10-05T04:57:42.818Z,943.11
2022-10-05T04:58:43.776Z,943.11
2022-10-05T04:59:43.974Z,943.11
2022-10-05T05:00:44.697Z,943.13
2022-10-05T05:01:45.236Z,943.16
2022-10-05T05:02:45.718Z,943.18
2022-10-05T05:03:46.712Z,943.17
2022-10-05T05:04:51.619Z,943.14
2022-10-05T05:06:05.329Z,943.14
2022-10-05T05:06:49.250Z,943.18
2022-10-05T05:07:49.440Z,943.19
2022-10-05T05:08:49.749Z,943.18
2022-10-05T05:09:49.949Z,943.17
2022-10-05T05:10:50.867Z,943.16
2022-10-05T05:11:51.590Z,943.18
2022-10-05T05:12:52.203Z,943.17
2022-10-05T05:13:52.399Z,943.17
2022-10-05T05:14:53.321Z,943.17
2022-10-05T05:15:54.283Z,943.18
2022-10-05T05:16:54.498Z,943.18
2022-10-05T05:17:54.703Z,943.18
2022-10-05T05:18:55.093Z,943.21
2022-10-05T05:19:55.738Z,943.21
2022-10-05T05:20:56.263Z,943.22
2022-10-05T05:21:56.474Z,943.29
2022-10-05T05:22:57.386Z,943.28
2022-10-05T05:23:58.292Z,943.26
2022-10-05T05:24:58.623Z,943.31
2022-10-05T05:25:59.692Z,943.32
2022-10-05T05:27:00.590Z,943.29
2022-10-05T05:28:01.272Z,943.34
2022-10-05T05:29:01.784Z,943.3
2022-10-05T05:30:02.709Z,943.31
2022-10-05T05:31:02.937Z,943.31
2022-10-05T05:32:03.666Z,943.3
2022-10-05T05:33:03.895Z,943.36
2022-10-05T05:34:04.530Z,943.32
2022-10-05T05:35:04.779Z,943.39
2022-10-05T05:36:05.295Z,943.33
2022-10-05T05:37:06.252Z,943.36
2022-10-05T05:38:07.165Z,943.37
2022-10-05T05:39:08.152Z,943.4
2022-10-05T05:40:08.360Z,943.4
2022-10-05T05:41:09.311Z,943.45
2022-10-05T05:42:10.090Z,943.43
2022-10-05T05:43:10.706Z,943.39
2022-10-05T05:44:11.301Z,943.5
2022-10-05T05:45:12.234Z,943.44
2022-10-05T05:46:13.187Z,943.46
2022-10-05T05:47:14.381Z,943.48
2022-10-05T05:48:14.914Z,943.45
2022-10-05T05:49:15.217Z,943.47
2022-10-05T05:50:16.184Z,943.51
2022-10-05T05:51:16.399Z,943.52
2022-10-05T05:52:17.315Z,943.5
2022-10-05T05:53:17.502Z,943.52
2022-10-05T05:54:17.694Z,943.53
2022-10-05T05:55:18.612Z,943.52
2022-10-05T05:56:19.406Z,943.54
2022-10-05T05:57:20.014Z,943.52
2022-10-05T05:58:20.501Z,943.48
2022-10-05T05:59:20.803Z,943.5
2022-10-05T06:00:21.025Z,943.53
2022-10-05T06:01:32.526Z,943.53
2022-10-05T06:02:22.523Z,943.55
2022-10-05T06:03:23.571Z,943.54
2022-10-05T06:04:23.938Z,943.55
2022-10-05T06:05:24.141Z,943.54
2022-10-05T06:06:24.745Z,943.58
2022-10-05T06:07:29.548Z,943.57
2022-10-05T06:08:25.560Z,943.65
2022-10-05T06:09:26.172Z,943.6
2022-10-05T06:10:26.397Z,943.65
2022-10-05T06:11:27.349Z,943.66
2022-10-05T06:12:27.535Z,943.66
2022-10-05T06:13:27.734Z,943.64
2022-10-05T06:14:28.364Z,943.66
2022-10-05T06:15:29.286Z,943.65
2022-10-05T06:16:29.864Z,943.67
2022-10-05T06:17:30.459Z,943.66
2022-10-05T06:18:30.670Z,943.65
2022-10-05T06:19:31.242Z,943.65
2022-10-05T06:20:32.214Z,943.63
2022-10-05T06:21:32.469Z,943.64
2022-10-05T06:22:32.795Z,943.64
2022-10-05T06:23:33.710Z,943.63
2022-10-05T06:24:34.598Z,943.6
2022-10-05T06:25:35.082Z,943.61
2022-10-05T06:26:35.361Z,943.61
2022-10-05T06:27:35.407Z,943.63
2022-10-05T06:28:36.409Z,943.61
2022-10-05T06:29:36.898Z,943.62
2022-10-05T06:30:37.123Z,943.61
2022-10-05T06:31:38.123Z,943.6
2022-10-05T06:32:38.637Z,943.62
2022-10-05T06:33:39.255Z,943.65
2022-10-05T06:34:39.601Z,943.6
2022-10-05T06:35:40.224Z,943.62
2022-10-05T06:36:40.870Z,943.6
2022-10-05T06:37:41.473Z,943.61
2022-10-05T06:38:42.086Z,943.66
2022-10-05T06:39:43.069Z,943.64
2022-10-05T06:40:44.110Z,943.61
2022-10-05T06:41:44.497Z,943.63
2022-10-05T06:42:44.712Z,943.62
2022-10-05T06:43:45.356Z,943.61
2022-10-05T06:44:46.279Z,943.65
2022-10-05T06:45:46.738Z,943.63
2022-10-05T06:46:47.423Z,943.64
2022-10-05T06:47:47.781Z,943.6
2022-10-05T06:48:48.081Z,943.63
2022-10-05T06:49:49.135Z,943.66
2022-10-05T06:50:49.364Z,943.68
2022-10-05T06:51:49.610Z,943.69
2022-10-05T06:52:50.532Z,943.68
2022-10-05T06:53:51.166Z,943.75
2022-10-05T06:54:52.108Z,943.73
2022-10-05T06:55:52.361Z,943.76
2022-10-05T06:56:53.333Z,943.76
2022-10-05T06:57:53.538Z,943.77
2022-10-05T06:58:53.734Z,943.78
2022-10-05T06:59:54.458Z,943.8
2022-10-05T07:00:54.720Z,943.8
2022-10-05T07:01:55.224Z,943.76
2022-10-05T07:02:55.365Z,943.77
2022-10-05T07:03:55.989Z,943.76
2022-10-05T07:04:56.489Z,943.77
2022-10-05T07:05:57.428Z,943.77
2022-10-05T07:06:57.643Z,943.79
2022-10-05T07:07:58.144Z,943.8
2022-10-05T07:08:58.778Z,943.81
2022-10-05T07:09:59.874Z,943.77
2022-10-05T07:11:00.862Z,943.78
2022-10-05T07:12:05.030Z,943.79
2022-10-05T07:13:01.564Z,943.79
2022-10-05T07:14:02.186Z,943.77
2022-10-05T07:15:03.105Z,943.76
2022-10-05T07:16:04.120Z,943.78
2022-10-05T07:17:05.050Z,943.76
2022-10-05T07:18:05.280Z,943.79
2022-10-05T07:19:05.583Z,943.8
2022-10-05T07:20:06.330Z,943.79
2022-10-05T07:21:06.964Z,943.79
2022-10-05T07:23:07.853Z,943.77
2022-10-05T07:24:08.781Z,943.8
2022-10-05T07:25:09.280Z,943.83
2022-10-05T07:26:09.470Z,943.83
2022-10-05T07:27:10.417Z,943.88
2022-10-05T07:28:10.959Z,943.88
2022-10-05T07:29:11.274Z,943.84
2022-10-05T07:30:11.575Z,943.84
2022-10-05T07:31:12.505Z,943.85
2022-10-05T07:32:13.455Z,943.85
2022-10-05T07:33:13.667Z,943.82
2022-10-05T07:34:14.586Z,943.79
2022-10-05T07:35:14.810Z,943.79
2022-10-05T07:36:15.071Z,943.83
2022-10-05T07:37:16.040Z,943.81
2022-10-05T07:38:16.948Z,943.82
2022-10-05T07:39:17.434Z,943.91
2022-10-05T07:40:38.981Z,943.91
2022-10-05T07:41:39.183Z,943.89
2022-10-05T07:42:46.244Z,943.88
2022-10-05T07:44:00.832Z,943.89
2022-10-05T07:44:40.734Z,943.87
2022-10-05T07:45:41.692Z,943.87
2022-10-05T07:46:42.246Z,943.85
2022-10-05T07:47:42.720Z,943.91
2022-10-05T07:48:42.953Z,943.87
2022-10-05T07:49:43.581Z,943.91
2022-10-05T07:50:43.909Z,943.92
2022-10-05T07:51:44.181Z,943.9
2022-10-05T07:52:44.329Z,943.9
2022-10-05T07:53:44.526Z,943.86
2022-10-05T07:54:45.513Z,943.9
2022-10-05T07:55:45.730Z,943.89
2022-10-05T07:56:46.616Z,943.88
2022-10-05T07:57:46.728Z,943.89
2022-10-05T07:58:47.215Z,943.86
2022-10-05T07:59:47.448Z,943.87
2022-10-05T08:00:47.739Z,943.89
2022-10-05T08:01:48.083Z,943.91
2022-10-05T08:02:48.981Z,943.92
2022-10-05T08:03:49.271Z,943.92
2022-10-05T08:04:49.630Z,943.94
2022-10-05T08:05:49.963Z,943.91
2022-10-05T08:06:50.954Z,943.93
2022-10-05T08:07:51.458Z,943.9
2022-10-05T08:08:51.689Z,943.92
2022-10-05T08:09:52.070Z,943.93
2022-10-05T08:10:52.809Z,943.95
2022-10-05T08:11:53.451Z,943.93
2022-10-05T08:12:53.814Z,943.94
2022-10-05T08:13:54.298Z,943.94
2022-10-05T08:14:54.917Z,943.91
2022-10-05T08:15:55.895Z,943.95
2022-10-05T08:16:56.499Z,943.94
2022-10-05T08:17:56.746Z,943.92
2022-10-05T08:18:57.467Z,943.91
2022-10-05T08:19:58.094Z,943.93
2022-10-05T08:20:58.641Z,943.97
2022-10-05T08:21:59.153Z,943.96
2022-10-05T08:23:00.095Z,943.97
2022-10-05T08:24:00.301Z,943.97
2022-10-05T08:25:00.948Z,943.99
2022-10-05T08:26:01.957Z,943.99
2022-10-05T08:27:02.603Z,944.03
2022-10-05T08:28:02.859Z,943.98
2022-10-05T08:29:03.328Z,943.95
2022-10-05T08:30:03.438Z,943.98
2022-10-05T08:31:04.023Z,943.99
2022-10-05T08:32:04.122Z,944
2022-10-05T08:33:04.360Z,944
2022-10-05T08:34:04.653Z,944
2022-10-05T08:35:05.300Z,943.98
2022-10-05T08:36:05.933Z,944.03
2022-10-05T08:37:06.150Z,944.01
2022-10-05T08:38:06.678Z,943.99
2022-10-05T08:39:07.015Z,943.99
2022-10-05T08:40:07.332Z,944.03
2022-10-05T08:41:08.217Z,944.02
2022-10-05T08:42:08.423Z,944.05
2022-10-05T08:43:08.661Z,944.04
2022-10-05T08:44:08.844Z,944.02
2022-10-05T08:45:09.337Z,944.01
2022-10-05T08:46:10.079Z,944.03
2022-10-05T08:47:10.666Z,944.04
2022-10-05T08:48:11.307Z,944.05
2022-10-05T08:49:12.272Z,944.03
2022-10-05T08:50:12.565Z,944.04
2022-10-05T08:51:12.624Z,944.04
2022-10-05T08:52:13.616Z,944.08
2022-10-05T08:53:13.945Z,944.05
2022-10-05T08:54:14.845Z,944.1
2022-10-05T08:55:15.507Z,944.11
2022-10-05T08:56:19.816Z,944.09
2022-10-05T08:57:16.769Z,944.09
2022-10-05T08:58:17.133Z,944.11
2022-10-05T08:59:18.070Z,944.07
2022-10-05T09:00:18.284Z,944.11
2022-10-05T09:01:19.005Z,944.11
2022-10-05T09:02:19.317Z,944.11
2022-10-05T09:03:19.623Z,944.14
2022-10-05T09:04:19.634Z,944.15
2022-10-05T09:05:20.563Z,944.18
2022-10-05T09:06:21.532Z,944.15
2022-10-05T09:07:22.035Z,944.19
2022-10-05T09:08:22.482Z,944.21
2022-10-05T09:09:22.988Z,944.21
2022-10-05T09:10:23.192Z,944.19
2022-10-05T09:11:23.548Z,944.21
2022-10-05T09:12:24.186Z,944.22
2022-10-05T09:13:25.112Z,944.26
2022-10-05T09:14:26.006Z,944.26
2022-10-05T09:15:27.191Z,944.26
2022-10-05T09:16:28.054Z,944.33
2022-10-05T09:17:28.728Z,944.32
2022-10-05T09:18:29.112Z,944.31
2022-10-05T09:19:29.304Z,944.32
2022-10-05T09:20:29.522Z,944.35
2022-10-05T09:21:29.805Z,944.34
2022-10-05T09:22:30.166Z,944.38
2022-10-05T09:23:31.251Z,944.35
2022-10-05T09:24:31.473Z,944.39
2022-10-05T09:25:32.160Z,944.37
2022-10-05T09:26:32.390Z,944.35
2022-10-05T09:27:33.342Z,944.38
2022-10-05T09:28:33.633Z,944.38
2022-10-05T09:29:34.274Z,944.38
2022-10-05T09:30:34.785Z,944.4
2022-10-05T09:31:35.014Z,944.42
2022-10-05T09:32:35.412Z,944.38
2022-10-05T09:33:35.786Z,944.39
2022-10-05T09:34:36.132Z,944.41
2022-10-05T09:35:37.098Z,944.41
2022-10-05T09:36:37.450Z,944.43
2022-10-05T09:37:38.450Z,944.44
2022-10-05T09:38:38.845Z,944.4
2022-10-05T09:39:39.781Z,944.41
2022-10-05T09:40:40.514Z,944.38
2022-10-05T09:41:40.945Z,944.41
2022-10-05T09:42:41.852Z,944.39
2022-10-05T09:43:42.082Z,944.4
2022-10-05T09:44:42.299Z,944.39
2022-10-05T09:45:43.228Z,944.41
2022-10-05T09:46:43.592Z,944.4
2022-10-05T09:47:44.581Z,944.44
2022-10-05T09:48:44.842Z,944.45
2022-10-05T09:49:45.781Z,944.45
2022-10-05T09:50:46.638Z,944.42
2022-10-05T09:51:47.270Z,944.45
2022-10-05T09:52:47.393Z,944.5
2022-10-05T09:53:47.729Z,944.47
2022-10-05T09:54:48.641Z,944.49
2022-10-05T09:55:48.870Z,944.53
2022-10-05T09:56:49.721Z,944.54
2022-10-05T09:57:50.918Z,944.59
2022-10-05T09:58:50.403Z,944.56
2022-10-05T09:59:51.044Z,944.58
2022-10-05T10:00:55.706Z,944.6
2022-10-05T10:02:17.028Z,944.55
2022-10-05T10:03:17.012Z,944.58
2022-10-05T10:04:17.528Z,944.62
2022-10-05T10:05:17.816Z,944.63
2022-10-05T10:06:18.732Z,944.65
2022-10-05T10:07:18.946Z,944.62
2022-10-05T10:08:19.235Z,944.58
2022-10-05T10:09:19.822Z,944.56
2022-10-05T10:10:20.246Z,944.56
2022-10-05T10:11:20.457Z,944.55
2022-10-05T10:12:20.808Z,944.55
2022-10-05T10:13:21.316Z,944.52
2022-10-05T10:14:21.975Z,944.52
2022-10-05T10:15:22.485Z,944.52
2022-10-05T10:16:23.631Z,944.5
2022-10-05T10:17:23.664Z,944.52
2022-10-05T10:18:24.179Z,944.54
2022-10-05T10:19:24.822Z,944.55
2022-10-05T10:20:25.732Z,944.55
2022-10-05T10:21:26.378Z,944.53
2022-10-05T10:22:27.415Z,944.54
2022-10-05T10:23:27.971Z,944.53
2022-10-05T10:24:28.090Z,944.52
2022-10-05T10:25:29.020Z,944.55
2022-10-05T10:26:29.535Z,944.55
2022-10-05T10:27:30.043Z,944.51
2022-10-05T10:28:30.599Z,944.49
2022-10-05T10:29:31.070Z,944.53
2022-10-05T10:30:32.042Z,944.51
2022-10-05T10:31:31.738Z,944.5
2022-10-05T10:32:32.313Z,944.51
2022-10-05T10:33:32.827Z,944.49
2022-10-05T10:34:33.466Z,944.53
2022-10-05T10:35:33.686Z,944.5
2022-10-05T10:36:34.611Z,944.5
2022-10-05T10:37:35.458Z,944.51
2022-10-05T10:38:36.415Z,944.55
2022-10-05T10:39:36.690Z,944.56
2022-10-05T10:40:37.607Z,944.56
2022-10-05T10:41:38.244Z,944.5
2022-10-05T10:42:38.603Z,944.57
2022-10-05T10:43:38.808Z,944.56
2022-10-05T10:44:39.349Z,944.52
2022-10-05T10:45:39.565Z,944.55
2022-10-05T10:46:39.779Z,944.55
2022-10-05T10:47:40.086Z,944.56
2022-10-05T10:48:40.308Z,944.52
2022-10-05T10:49:40.936Z,944.57
2022-10-05T10:50:41.288Z,944.55
2022-10-05T10:51:41.496Z,944.56
2022-10-05T10:52:41.830Z,944.58
2022-10-05T10:53:42.053Z,944.58
2022-10-05T10:54:42.283Z,944.56
2022-10-05T10:55:43.214Z,944.56
2022-10-05T10:56:44.137Z,944.54
2022-10-05T10:57:44.431Z,944.55
2022-10-05T10:58:45.102Z,944.55
2022-10-05T10:59:46.046Z,944.55
2022-10-05T11:00:46.245Z,944.5
2022-10-05T11:01:47.507Z,944.51
2022-10-05T11:02:47.568Z,944.49
2022-10-05T11:03:48.642Z,944.49
2022-10-05T11:04:48.946Z,944.53
2022-10-05T11:05:49.881Z,944.52
2022-10-05T11:06:50.698Z,944.49
2022-10-05T11:07:51.622Z,944.46
2022-10-05T11:08:51.844Z,944.46
2022-10-05T11:09:52.102Z,944.44
2022-10-05T11:10:52.833Z,944.44
2022-10-05T11:11:53.040Z,944.44
2022-10-05T11:12:53.822Z,944.42
2022-10-05T11:13:54.046Z,944.42
2022-10-05T11:14:54.995Z,944.42
2022-10-05T11:15:56.010Z,944.4
2022-10-05T11:16:56.908Z,944.38
2022-10-05T11:17:57.535Z,944.38
2022-10-05T11:18:58.244Z,944.4
2022-10-05T11:20:03.901Z,944.35
2022-10-05T11:20:59.410Z,944.34
2022-10-05T11:22:00.318Z,944.31
2022-10-05T11:23:01.350Z,944.31
2022-10-05T11:24:02.272Z,944.28
2022-10-05T11:25:02.539Z,944.26
2022-10-05T11:26:03.491Z,944.23
2022-10-05T11:27:03.703Z,944.25
2022-10-05T11:28:03.931Z,944.25
2022-10-05T11:29:04.308Z,944.24
2022-10-05T11:30:05.087Z,944.23
2022-10-05T11:31:05.138Z,944.25
2022-10-05T11:32:05.901Z,944.22
2022-10-05T11:33:06.294Z,944.2
2022-10-05T11:34:06.839Z,944.21
2022-10-05T11:35:07.041Z,944.21
2022-10-05T11:36:07.547Z,944.23
2022-10-05T11:37:08.474Z,944.17
2022-10-05T11:38:09.396Z,944.14
2022-10-05T11:39:10.426Z,944.13
2022-10-05T11:40:10.964Z,944.15
2022-10-05T11:41:11.312Z,944.14
2022-10-05T11:42:11.523Z,944.1
2022-10-05T11:43:12.590Z,944.09
2022-10-05T11:44:13.093Z,944.13
2022-10-05T11:45:13.771Z,944.1
2022-10-05T11:46:14.315Z,944.06
2022-10-05T11:47:15.165Z,944.04
2022-10-05T11:48:15.402Z,944.05
2022-10-05T11:49:16.385Z,944.02
2022-10-05T11:50:16.610Z,943.98
2022-10-05T11:51:16.819Z,944.03
2022-10-05T11:52:17.129Z,943.98
2022-10-05T11:53:18.158Z,943.95
2022-10-05T11:54:18.826Z,943.93
2022-10-05T11:55:18.988Z,943.93
2022-10-05T11:56:19.305Z,943.92
2022-10-05T11:57:19.940Z,943.87
2022-10-05T11:58:20.869Z,943.89
2022-10-05T11:59:21.507Z,943.88
2022-10-05T12:00:22.026Z,943.87
2022-10-05T12:01:22.240Z,943.83
2022-10-05T12:02:22.891Z,943.83
2022-10-05T12:03:23.916Z,943.81
2022-10-05T12:04:24.036Z,943.81
2022-10-05T12:05:24.361Z,943.8
2022-10-05T12:06:24.579Z,943.79
2022-10-05T12:07:25.248Z,943.83
2022-10-05T12:08:25.482Z,943.79
2022-10-05T12:09:25.705Z,943.79
2022-10-05T12:10:26.679Z,943.8
2022-10-05T12:11:27.668Z,943.82
2022-10-05T12:12:28.314Z,943.78
2022-10-05T12:13:29.371Z,943.81
2022-10-05T12:14:30.349Z,943.75
2022-10-05T12:15:31.012Z,943.76
2022-10-05T12:16:31.340Z,943.77
2022-10-05T12:17:31.579Z,943.76
2022-10-05T12:18:31.825Z,943.77
2022-10-05T12:19:32.790Z,943.74
2022-10-05T12:20:32.989Z,943.76
2022-10-05T12:21:33.895Z,943.71
2022-10-05T12:22:34.568Z,943.73
2022-10-05T12:23:35.055Z,943.73
2022-10-05T12:24:35.374Z,943.77
2022-10-05T12:25:35.625Z,943.75
2022-10-05T12:26:35.866Z,943.72
2022-10-05T12:27:36.219Z,943.74
2022-10-05T12:28:36.426Z,943.72
2022-10-05T12:29:36.814Z,943.71
2022-10-05T12:30:37.905Z,943.74
2022-10-05T12:31:38.631Z,943.73
2022-10-05T12:32:39.513Z,943.76
2022-10-05T12:33:40.558Z,943.73
2022-10-05T12:34:41.553Z,943.68
2022-10-05T12:35:48.146Z,943.67
2022-10-05T12:37:02.842Z,943.64
2022-10-05T12:37:42.758Z,943.6
2022-10-05T12:38:43.713Z,943.58
2022-10-05T12:39:44.661Z,943.58
2022-10-05T12:40:45.063Z,943.61